Time;durP1;ratioP1;P1;durP2;ratioP2;P2;SDS_P1;SDS_P2;PMS_P1;PMS_P2;Temp;Humidity;BMP_temperature;BMP_pressure;BME280_temperature;BME280_humidity;BME280_pressure;Samples;Min_cycle;Max_cycle;Signal;HPM_P1;HPM_P2
2022/05/23 00:00:12;;;;;;;;;7.00;6.00;;;;;22.10;100.00;100205.88;5024999;28;45297;-73
2022/05/23 00:02:37;;;;;;;;;10.00;6.00;;;;;22.08;100.00;100229.28;5029622;28;45657;-76
2022/05/23 00:05:03;;;;;;;;;5.33;5.00;;;;;22.09;100.00;100236.41;5010169;28;45565;-73
2022/05/23 00:07:35;;;;;;;;;8.67;6.00;;;;;22.09;100.00;100225.66;5024931;28;45494;-76
2022/05/23 00:10:01;;;;;;;;;6.00;6.00;;;;;22.10;100.00;100219.34;5031830;28;45294;-73
2022/05/23 00:12:27;;;;;;;;;6.67;5.67;;;;;22.10;100.00;100225.63;5028502;28;45791;-76
2022/05/23 00:14:52;;;;;;;;;5.00;5.00;;;;;22.08;100.00;100235.53;5031990;28;45316;-75
2022/05/23 00:17:19;;;;;;;;;6.00;4.00;;;;;22.08;100.00;100232.00;5036621;28;45690;-76
2022/05/23 00:19:46;;;;;;;;;4.67;4.67;;;;;22.06;100.00;100226.69;5036958;28;45530;-73
2022/05/23 00:22:12;;;;;;;;;6.67;5.33;;;;;22.07;100.00;100227.56;5027231;28;46448;-73
2022/05/23 00:24:37;;;;;;;;;6.00;6.00;;;;;22.05;100.00;100222.25;5033338;28;45506;-72
2022/05/23 00:27:04;;;;;;;;;5.00;5.00;;;;;22.03;100.00;100209.81;5036941;28;45553;-73
2022/05/23 00:29:29;;;;;;;;;7.00;6.00;;;;;22.02;100.00;100208.06;5008035;28;45774;-73
2022/05/23 00:37:23;;;;;;;;;7.00;7.00;;;;;22.01;100.00;100193.75;5037791;28;45491;-73
2022/05/23 00:39:48;;;;;;;;;7.00;6.00;;;;;21.98;100.00;100181.31;5036900;28;45551;-74
2022/05/23 00:45:01;;;;;;;;;7.00;6.00;;;;;21.98;100.00;100159.81;5021019;28;45259;-72
2022/05/23 00:47:28;;;;;;;;;6.00;6.00;;;;;21.97;100.00;100168.81;5019545;28;45331;-75
2022/05/23 00:49:54;;;;;;;;;7.00;5.33;;;;;21.96;100.00;100159.03;5023570;28;45410;-76
2022/05/23 00:52:27;;;;;;;;;8.67;5.00;;;;;21.95;100.00;100151.91;5031817;28;53830;-72
2022/05/23 00:54:55;;;;;;;;;6.33;6.33;;;;;21.94;100.00;100150.19;5027110;28;45191;-75
2022/05/23 00:57:23;;;;;;;;;8.00;5.00;;;;;21.93;100.00;100151.09;5013881;28;45493;-72
2022/05/23 00:59:48;;;;;;;;;4.67;4.67;;;;;21.92;100.00;100141.28;5026458;28;45305;-76
2022/05/23 01:02:15;;;;;;;;;4.67;4.00;;;;;21.91;100.00;100139.56;5034011;28;46167;-75
2022/05/23 01:04:41;;;;;;;;;5.33;5.33;;;;;21.90;100.00;100142.31;5028218;28;45383;-75
2022/05/23 01:07:06;;;;;;;;;6.00;6.00;;;;;21.89;100.00;100141.44;5034410;28;45397;-73
2022/05/23 01:09:32;;;;;;;;;8.33;6.67;;;;;21.86;100.00;100129.97;5018785;28;45222;-75
2022/05/23 01:11:59;;;;;;;;;6.00;6.00;;;;;21.83;100.00;100125.59;5008702;28;45384;-78
2022/05/23 01:14:26;;;;;;;;;6.00;6.00;;;;;21.82;100.00;100125.66;5035448;28;45771;-74
2022/05/23 01:16:51;;;;;;;;;8.00;6.00;;;;;21.80;100.00;100111.44;5031237;28;45525;-75
2022/05/23 01:19:17;;;;;;;;;5.00;5.00;;;;;21.77;100.00;100095.44;5032689;28;45733;-73
2022/05/23 01:21:48;;;;;;;;;5.00;5.00;;;;;21.74;100.00;100092.91;5035382;28;61476;-73
2022/05/23 01:24:52;;;;;;;;;5.00;4.00;;;;;21.71;100.00;100093.91;5035847;28;45195;-73
2022/05/23 01:27:18;;;;;;;;;4.67;4.00;;;;;21.67;100.00;100085.13;5032074;28;45486;-73
2022/05/23 01:29:45;;;;;;;;;4.33;4.00;;;;;21.65;100.00;100068.22;5017730;28;46201;-74
2022/05/23 01:32:10;;;;;;;;;4.00;4.00;;;;;21.64;100.00;100068.28;5030061;28;46134;-72
2022/05/23 01:34:36;;;;;;;;;5.00;4.00;;;;;21.62;100.00;100062.09;4999458;28;45536;-75
2022/05/23 01:37:02;;;;;;;;;3.33;3.33;;;;;21.61;100.00;100045.09;5016932;28;45405;-73
2022/05/23 01:39:27;;;;;;;;;4.33;4.33;;;;;21.60;100.00;100037.13;5034428;28;45585;-75
2022/05/23 01:41:53;;;;;;;;;6.00;4.00;;;;;21.57;100.00;100037.25;5035391;28;46477;-74
2022/05/23 01:44:18;;;;;;;;;5.33;4.00;;;;;21.54;100.00;100035.59;5034853;28;58634;-75
2022/05/23 01:46:44;;;;;;;;;6.00;4.33;;;;;21.51;100.00;100033.03;5027985;28;45455;-75
2022/05/23 01:49:09;;;;;;;;;3.33;3.33;;;;;21.50;100.00;100019.69;5035743;28;45297;-76
2022/05/23 01:51:34;;;;;;;;;5.67;5.00;;;;;21.46;100.00;100008.22;5035664;28;46520;-72
2022/05/23 01:54:00;;;;;;;;;4.00;4.00;;;;;21.42;100.00;100002.13;5032283;28;60830;-75
2022/05/23 01:56:25;;;;;;;;;6.00;5.00;;;;;21.41;100.00;100011.16;5036156;28;45719;-75
2022/05/23 02:01:36;;;;;;;;;6.67;6.00;;;;;21.33;100.00;99993.63;5028644;28;45743;-73
2022/05/23 02:04:02;;;;;;;;;7.00;5.33;;;;;21.31;100.00;99988.34;5028759;28;47237;-73
2022/05/23 02:06:27;;;;;;;;;9.00;6.33;;;;;21.27;100.00;99992.06;5026883;28;45222;-73
2022/05/23 02:08:52;;;;;;;;;7.00;6.00;;;;;21.27;100.00;99991.22;5038201;28;45259;-74
2022/05/23 02:11:18;;;;;;;;;8.33;7.00;;;;;21.24;100.00;99997.56;5024702;28;46557;-72
2022/05/23 02:13:44;;;;;;;;;7.00;7.00;;;;;21.22;100.00;99988.72;5033283;28;45182;-73
2022/05/23 02:16:10;;;;;;;;;7.00;7.00;;;;;21.21;100.00;99997.72;5019200;28;45467;-72
2022/05/23 02:18:36;;;;;;;;;5.67;5.67;;;;;21.18;100.00;99997.84;5033464;28;45290;-73
2022/05/23 02:21:01;;;;;;;;;8.67;7.00;;;;;21.15;100.00;100004.25;5038551;28;45681;-75
2022/05/23 02:23:27;;;;;;;;;7.67;7.00;;;;;21.10;100.00;99998.22;5038184;28;45409;-74
2022/05/23 02:25:52;;;;;;;;;10.00;8.00;;;;;21.09;100.00;100009.91;5025440;28;45439;-76
2022/05/23 02:28:20;;;;;;;;;9.00;8.00;;;;;21.08;100.00;100023.38;5037718;28;51249;-78
2022/05/23 02:30:47;;;;;;;;;6.00;6.00;;;;;21.06;100.00;100027.97;5038367;28;45906;-76
2022/05/23 02:33:13;;;;;;;;;8.00;5.00;;;;;21.04;100.00;100021.75;5030776;28;45521;-72
2022/05/23 02:35:38;;;;;;;;;7.00;7.00;;;;;21.04;100.00;100021.75;5028310;28;45522;-74
2022/05/23 02:38:04;;;;;;;;;6.67;6.67;;;;;21.01;100.00;100013.88;5038830;28;45630;-76
2022/05/23 02:40:29;;;;;;;;;8.00;7.00;;;;;20.98;100.00;100012.19;5036310;28;47293;-73
2022/05/23 02:42:55;;;;;;;;;7.33;6.00;;;;;20.97;100.00;100014.94;5038562;28;45519;-74
2022/05/23 02:45:20;;;;;;;;;8.00;6.67;;;;;20.93;100.00;100011.50;5030023;28;46813;-77
2022/05/23 02:47:46;;;;;;;;;8.33;6.00;;;;;20.89;100.00;100010.81;5029692;28;55182;-74
2022/05/23 02:50:12;;;;;;;;;8.00;6.33;;;;;20.89;100.00;100012.63;5038171;28;47268;-76
2022/05/23 02:52:38;;;;;;;;;7.33;7.00;;;;;20.86;100.00;100018.09;5037175;28;45365;-76
2022/05/23 02:55:04;;;;;;;;;8.00;6.00;;;;;20.83;100.00;100021.81;5019268;28;45336;-73
2022/05/23 02:57:30;;;;;;;;;5.33;5.33;;;;;20.81;100.00;100021.00;5037814;28;45281;-72
2022/05/23 02:59:56;;;;;;;;;13.67;7.00;;;;;20.79;100.00;100016.63;5021745;28;47475;-73
2022/05/23 03:05:06;;;;;;;;;7.00;7.00;;;;;20.74;100.00;100027.56;5030747;28;45620;-74
2022/05/23 03:07:31;;;;;;;;;6.00;6.00;;;;;20.74;100.00;100021.34;5021010;28;45575;-73
2022/05/23 03:09:56;;;;;;;;;5.67;5.67;;;;;20.75;100.00;100020.38;5034276;28;63174;-73
2022/05/23 03:12:22;;;;;;;;;5.00;5.00;;;;;20.73;100.00;100027.66;5032194;28;45402;-73
2022/05/23 03:14:47;;;;;;;;;9.00;5.67;;;;;20.75;100.00;100026.63;5037288;28;55762;-73
2022/05/23 03:17:13;;;;;;;;;8.67;6.00;;;;;20.75;100.00;100025.75;5026602;28;55373;-73
2022/05/23 03:19:39;;;;;;;;;9.00;7.00;;;;;20.76;100.00;100016.75;5036352;28;47292;-74
2022/05/23 03:27:38;;;;;;;;;9.00;6.33;;;;;20.82;100.00;100024.53;5037663;28;45288;-72
2022/05/23 03:30:05;;;;;;;;;8.00;8.00;;;;;20.83;100.00;100004.84;5036804;28;45719;-73
2022/05/23 03:32:30;;;;;;;;;8.00;6.00;;;;;20.82;100.00;99984.28;5037476;28;45301;-74
2022/05/23 03:34:56;;;;;;;;;7.00;7.00;;;;;20.82;100.00;99965.50;5035725;28;45503;-75
2022/05/23 03:37:21;;;;;;;;;7.00;6.00;;;;;20.79;100.00;99947.75;5025271;28;45461;-76
2022/05/23 03:39:47;;;;;;;;;8.67;7.33;;;;;20.81;100.00;99945.84;5037294;28;46552;-72
2022/05/23 03:42:13;;;;;;;;;7.00;7.00;;;;;20.82;100.00;99963.69;5037085;28;45298;-77
2022/05/23 03:44:38;;;;;;;;;7.00;7.00;;;;;20.81;100.00;99956.59;5030240;28;45270;-75
2022/05/23 03:47:04;;;;;;;;;7.33;7.33;;;;;20.79;100.00;99979.06;5017053;28;45544;-74
2022/05/23 03:49:30;;;;;;;;;12.00;10.00;;;;;20.76;100.00;99981.88;5023937;28;47301;-73
2022/05/23 03:51:55;;;;;;;;;9.67;7.67;;;;;20.71;100.00;99974.03;5037365;28;45373;-76
2022/05/23 03:54:21;;;;;;;;;9.00;8.00;;;;;20.66;100.00;99952.78;5035017;28;45472;-75
2022/05/23 03:56:46;;;;;;;;;9.00;8.00;;;;;20.63;100.00;99939.53;5025378;28;51211;-75
2022/05/23 03:59:11;;;;;;;;;7.67;7.00;;;;;20.60;100.00;99941.47;5025302;28;58548;-72
2022/05/23 04:01:37;;;;;;;;;13.00;10.00;;;;;20.57;100.00;99942.47;5019926;28;57944;-75
2022/05/23 04:04:03;;;;;;;;;9.00;8.00;;;;;20.55;100.00;99949.69;5028925;28;56226;-75
2022/05/23 04:06:29;;;;;;;;;11.33;8.00;;;;;20.53;100.00;99958.78;5030046;28;45759;-73
2022/05/23 04:08:54;;;;;;;;;11.33;9.00;;;;;20.51;100.00;99964.22;5030201;28;46606;-73
2022/05/23 04:11:21;;;;;;;;;9.67;8.33;;;;;20.47;100.00;99942.94;5029705;28;58870;-75
2022/05/23 04:13:47;;;;;;;;;9.00;9.00;;;;;20.44;100.00;99933.19;5031698;28;45328;-73
2022/05/23 04:16:13;;;;;;;;;10.67;7.00;;;;;20.43;100.00;99931.44;5032527;28;45495;-76
2022/05/23 04:18:38;;;;;;;;;10.33;10.33;;;;;20.44;100.00;99918.91;5036748;28;46056;-74
2022/05/23 04:21:04;;;;;;;;;11.67;9.33;;;;;20.43;100.00;99926.09;5036601;28;45311;-72
2022/05/23 04:23:30;;;;;;;;;11.00;9.33;;;;;20.42;100.00;99914.47;5024724;28;45322;-73
2022/05/23 04:26:01;;;;;;;;;10.33;10.33;;;;;20.45;100.00;99905.41;5036553;28;45437;-73
2022/05/23 04:28:26;;;;;;;;;13.67;10.00;;;;;20.49;100.00;99890.09;5017258;28;46579;-75
2022/05/23 04:30:52;;;;;;;;;10.33;10.33;;;;;20.51;100.00;99875.72;5034433;28;45342;-75
2022/05/23 04:36:01;;;;;;;;;19.00;16.33;;;;;20.57;100.00;99867.38;5025487;28;45428;-75
2022/05/23 04:38:26;;;;;;;;;18.00;18.00;;;;;20.59;100.00;99867.31;5036170;28;53589;-73
2022/05/23 04:40:52;;;;;;;;;29.33;23.00;;;;;20.57;100.00;99888.84;5036608;28;45238;-74
2022/05/23 04:43:17;;;;;;;;;22.67;18.67;;;;;20.56;100.00;99883.50;5033997;28;45214;-73
2022/05/23 04:45:43;;;;;;;;;22.33;20.33;;;;;20.56;100.00;99870.09;5018533;28;45524;-73
2022/05/23 04:50:53;;;;;;;;;18.00;18.00;;;;;20.51;100.00;99864.13;5034940;28;45210;-76
2022/05/23 04:53:18;;;;;;;;;24.33;17.67;;;;;20.50;100.00;99875.75;5026671;28;45251;-73
2022/05/23 04:55:44;;;;;;;;;17.33;14.67;;;;;20.50;100.00;99890.03;5034999;28;45905;-74
2022/05/23 04:58:11;;;;;;;;;24.00;17.00;;;;;20.51;100.00;99885.56;5031615;28;45505;-74
2022/05/23 05:00:39;;;;;;;;;19.67;18.00;;;;;20.53;100.00;99876.50;5022440;28;45384;-74
2022/05/23 05:03:04;;;;;;;;;20.00;16.00;;;;;20.54;100.00;99877.38;5025746;28;45412;-73
2022/05/23 05:05:30;;;;;;;;;16.67;13.67;;;;;20.54;100.00;99880.03;5027839;28;51699;-75
2022/05/23 05:07:57;;;;;;;;;13.00;13.00;;;;;20.53;100.00;99862.22;5025352;28;45724;-76
2022/05/23 05:10:23;;;;;;;;;13.00;13.00;;;;;20.55;100.00;99846.91;5035460;28;45219;-76
2022/05/23 05:12:50;;;;;;;;;14.67;12.00;;;;;20.55;100.00;99847.78;5005809;28;45298;-72
2022/05/23 05:15:16;;;;;;;;;15.00;13.33;;;;;20.53;100.00;99863.09;5035374;28;45491;-73
2022/05/23 05:17:41;;;;;;;;;16.00;13.00;;;;;20.55;100.00;99853.16;5019259;28;46148;-76
2022/05/23 05:20:08;;;;;;;;;13.00;13.00;;;;;20.55;100.00;99845.09;5034955;28;45578;-75
2022/05/23 05:22:35;;;;;;;;;11.00;11.00;;;;;20.55;100.00;99836.19;5009248;28;45367;-74
2022/05/23 05:25:01;;;;;;;;;12.67;12.67;;;;;20.55;100.00;99842.41;5030291;28;45549;-72
2022/05/23 05:27:26;;;;;;;;;13.33;10.33;;;;;20.58;100.00;99844.09;5029806;28;46511;-75
2022/05/23 05:29:51;;;;;;;;;12.00;12.00;;;;;20.58;100.00;99836.06;5029626;28;56606;-74
2022/05/23 05:32:26;;;;;;;;;18.33;12.67;;;;;20.59;100.00;99819.03;5034002;28;45530;-74
2022/05/23 05:35:01;;;;;;;;;11.00;10.00;;;;;20.61;100.00;99814.44;5025378;28;45598;-78
2022/05/23 05:37:30;;;;;;;;;12.67;11.33;;;;;20.63;100.00;99794.66;5007661;28;47538;-76
2022/05/23 05:39:57;;;;;;;;;13.33;12.00;;;;;20.66;100.00;99790.97;5027886;28;45392;-74
2022/05/23 05:42:34;;;;;;;;;11.00;11.00;;;;;20.72;100.00;99805.88;5032152;28;45530;-76
2022/05/23 05:45:06;;;;;;;;;15.00;12.00;;;;;20.75;100.00;99809.31;5036657;28;45888;-76
2022/05/23 05:47:34;;;;;;;;;10.00;9.33;;;;;20.75;100.00;99840.63;5032862;28;46780;-77
2022/05/23 05:50:05;;;;;;;;;10.00;8.33;;;;;20.77;100.00;99860.22;5036152;28;45736;-75
2022/05/23 05:52:32;;;;;;;;;13.33;10.33;;;;;20.78;100.00;99857.47;5027496;28;45630;-75
2022/05/23 05:54:58;;;;;;;;;15.33;11.67;;;;;20.82;100.00;99856.38;5030076;28;57026;-76
2022/05/23 05:57:24;;;;;;;;;12.00;11.00;;;;;20.81;100.00;99851.06;5032426;28;47265;-75
2022/05/23 05:59:50;;;;;;;;;17.00;13.33;;;;;20.76;100.00;99842.38;5011590;28;47160;-74
2022/05/23 06:02:15;;;;;;;;;13.00;10.00;;;;;20.69;100.00;99820.34;5023172;28;46642;-73
2022/05/23 06:04:41;;;;;;;;;12.00;11.00;;;;;20.63;100.00;99824.19;5012485;28;55922;-73
2022/05/23 06:12:35;;;;;;;;;12.00;12.00;;;;;20.42;100.00;99836.72;5007180;28;45630;-73
2022/05/23 06:15:00;;;;;;;;;13.00;12.00;;;;;20.44;100.00;99844.69;5010707;28;45607;-73
2022/05/23 06:17:25;;;;;;;;;12.00;11.00;;;;;20.46;100.00;99842.88;5007985;28;47138;-73
2022/05/23 06:19:51;;;;;;;;;14.67;12.00;;;;;20.52;100.00;99845.25;5015840;28;45755;-74
2022/05/23 06:22:18;;;;;;;;;9.67;8.67;;;;;20.57;100.00;99845.06;5011741;28;50853;-73
2022/05/23 06:24:44;;;;;;;;;14.33;8.00;;;;;20.60;100.00;99844.91;5014875;28;45607;-74
2022/05/23 06:27:10;;;;;;;;;9.67;8.00;;;;;20.63;100.00;99842.09;5013736;28;47440;-74
2022/05/23 06:29:36;;;;;;;;;6.00;6.00;;;;;20.65;100.00;99834.81;5012918;28;45453;-74
2022/05/23 06:32:04;;;;;;;;;8.00;8.00;;;;;20.67;100.00;99827.59;5013374;28;45399;-74
2022/05/23 06:34:30;;;;;;;;;7.67;7.67;;;;;20.71;100.00;99822.94;5008546;28;45517;-74
2022/05/23 06:36:56;;;;;;;;;12.00;8.00;;;;;20.76;100.00;99823.59;5009156;28;46428;-73
2022/05/23 06:39:22;;;;;;;;;6.67;6.67;;;;;20.78;100.00;99817.22;5011735;28;45455;-74
2022/05/23 06:41:47;;;;;;;;;9.00;8.00;;;;;20.80;100.00;99820.69;5011891;28;45526;-74
2022/05/23 06:44:13;;;;;;;;;9.00;7.67;;;;;20.77;100.00;99810.09;5012290;28;45858;-72
2022/05/23 06:46:38;;;;;;;;;7.67;7.67;;;;;20.77;100.00;99777.91;5010784;28;51502;-73
2022/05/23 06:49:06;;;;;;;;;7.67;7.67;;;;;20.84;100.00;99770.44;5003698;28;45472;-72
2022/05/23 06:51:32;;;;;;;;;9.00;7.67;;;;;20.92;100.00;99771.81;5010063;28;45451;-73
2022/05/23 06:53:58;;;;;;;;;7.33;6.33;;;;;20.98;100.00;99786.72;5008134;28;45495;-73
2022/05/23 06:56:24;;;;;;;;;8.67;8.00;;;;;21.02;100.00;99780.28;5005420;28;46683;-73
2022/05/23 06:58:49;;;;;;;;;8.67;7.00;;;;;21.05;100.00;99792.69;5006661;28;61485;-73
2022/05/23 07:01:14;;;;;;;;;10.33;8.00;;;;;21.07;100.00;99783.63;5007954;28;45800;-72
2022/05/23 07:03:41;;;;;;;;;6.00;3.33;;;;;21.06;100.00;99763.09;5019925;28;45462;-73
2022/05/23 07:14:18;;;;;;;;;7.00;7.00;;;;;21.15;100.00;99772.50;5029856;28;45371;-73
2022/05/23 07:16:43;;;;;;;;;10.00;8.67;;;;;21.13;100.00;99772.56;5017358;28;61032;-74
2022/05/23 07:19:09;;;;;;;;;16.67;9.33;;;;;21.11;100.00;99782.53;5026769;28;45488;-75
2022/05/23 07:21:35;;;;;;;;;8.33;8.00;;;;;21.11;100.00;99774.47;5023818;28;45559;-73
2022/05/23 07:24:00;;;;;;;;;12.67;7.67;;;;;21.12;100.00;99778.03;5028077;28;45902;-76
2022/05/23 07:26:26;;;;;;;;;9.00;7.00;;;;;21.11;100.00;99781.66;5034842;28;47556;-74
2022/05/23 07:28:53;;;;;;;;;9.33;7.00;;;;;21.10;100.00;99790.66;5028103;28;45626;-74
2022/05/23 07:31:18;;;;;;;;;8.00;8.00;;;;;21.07;100.00;99790.78;5027367;28;45597;-74
2022/05/23 07:33:44;;;;;;;;;10.67;9.33;;;;;21.02;100.00;99787.47;5021867;28;45362;-74
2022/05/23 07:37:02;;;;;;;;;13.67;8.33;;;;;20.99;100.00;99788.50;5028838;28;46598;-74
2022/05/23 07:39:56;;;;;;;;;13.33;8.00;;;;;20.91;100.00;99802.28;5033134;28;45562;-75
2022/05/23 07:42:22;;;;;;;;;6.00;5.00;;;;;20.89;100.00;99795.25;5031682;28;45633;-74
2022/05/23 07:44:58;;;;;;;;;9.33;7.00;;;;;20.93;100.00;99799.50;5029794;28;45776;-74
2022/05/23 07:48:05;;;;;;;;;8.67;7.33;;;;;20.93;100.00;99797.72;5032268;28;46811;-74
2022/05/23 07:51:04;;;;;;;;;13.00;8.67;;;;;20.91;100.00;99799.59;5030186;28;45635;-76
2022/05/23 08:02:19;;;;;;;;;9.00;9.00;;;;;21.07;100.00;99688.81;5027366;28;45980;-76
2022/05/23 08:04:45;;;;;;;;;8.00;8.00;;;;;21.11;100.00;99725.28;5011651;28;45473;-77
2022/05/23 08:07:10;;;;;;;;;8.67;7.00;;;;;21.16;100.00;99723.25;5029284;28;53119;-76
2022/05/23 08:09:38;;;;;;;;;9.00;7.67;;;;;21.15;100.00;99735.81;5021602;28;47134;-76
2022/05/23 08:12:04;;;;;;;;;8.33;6.67;;;;;21.18;100.00;99732.06;5031222;28;45536;-76
2022/05/23 08:14:30;;;;;;;;;10.00;8.00;;;;;21.23;100.00;99742.59;5017244;28;45522;-76
2022/05/23 08:16:56;;;;;;;;;7.00;7.00;;;;;21.26;100.00;99748.69;5022172;28;45574;-76
2022/05/23 08:19:21;;;;;;;;;8.67;8.67;;;;;21.26;100.00;99745.13;5027406;28;47330;-76
2022/05/23 08:21:51;;;;;;;;;8.00;8.00;;;;;21.28;100.00;99746.78;5030423;28;45569;-75
2022/05/23 08:24:16;;;;;;;;;11.00;9.00;;;;;21.27;100.00;99744.19;5031323;28;45508;-76
2022/05/23 08:26:42;;;;;;;;;12.00;9.67;;;;;21.26;100.00;99740.63;5027909;28;45636;-76
2022/05/23 08:29:08;;;;;;;;;12.33;10.33;;;;;21.27;100.00;99744.19;5027401;28;47995;-78
2022/05/23 08:31:33;;;;;;;;;11.33;11.33;;;;;21.31;100.00;99753.84;5029490;28;45393;-77
2022/05/23 08:33:59;;;;;;;;;13.67;9.67;;;;;21.31;100.00;99762.78;5031476;28;45408;-80
2022/05/23 08:36:24;;;;;;;;;11.67;11.67;;;;;21.30;100.00;99761.00;4994554;28;45258;-79
2022/05/23 08:38:50;;;;;;;;;10.00;9.33;;;;;21.29;100.00;99771.81;5026694;28;46542;-78
2022/05/23 08:41:15;;;;;;;;;11.00;10.33;;;;;21.24;100.00;99784.59;5011289;28;45831;-79
2022/05/23 08:44:07;;;;;;;;;10.00;10.00;;;;;21.15;100.00;99778.75;5027247;28;45459;-78
2022/05/23 08:47:05;;;;;;;;;11.67;10.33;;;;;21.11;100.00;99770.91;5019656;28;46563;-77
2022/05/23 08:49:45;;;;;;;;;10.00;10.00;;;;;21.10;100.00;99763.81;5022692;28;46490;-77
2022/05/23 08:52:14;;;;;;;;;13.33;11.67;;;;;21.14;100.00;99776.13;5031494;28;46552;-78
2022/05/23 08:54:51;;;;;;;;;11.00;10.00;;;;;21.15;100.00;99778.75;5017222;28;45599;-78
2022/05/23 08:57:51;;;;;;;;;13.33;9.67;;;;;21.10;100.00;99785.28;5027865;28;45673;-78
2022/05/23 09:00:24;;;;;;;;;14.00;12.00;;;;;21.02;100.00;99780.28;5034360;28;46797;-78
2022/05/23 09:03:07;;;;;;;;;10.33;9.33;;;;;21.00;100.00;99778.63;5086277;22;46100;-78
2022/05/23 09:05:36;;;;;;;;;10.67;10.67;;;;;21.02;100.00;99776.72;4979048;28;45480;-79
2022/05/23 09:08:06;;;;;;;;;12.33;9.67;;;;;20.99;100.00;99783.13;4955464;28;45650;-78
2022/05/23 09:10:39;;;;;;;;;13.00;11.67;;;;;20.98;100.00;99784.06;4962648;28;46514;-78
2022/05/23 09:13:07;;;;;;;;;13.33;11.67;;;;;20.96;100.00;99785.94;4957821;28;46037;-80
2022/05/23 09:15:33;;;;;;;;;10.33;8.67;;;;;20.91;100.00;99782.63;4985654;28;45373;-78
2022/05/23 09:18:03;;;;;;;;;13.00;13.00;;;;;20.89;100.00;99787.19;4974637;28;45649;-79
2022/05/23 09:20:53;;;;;;;;;15.67;13.00;;;;;20.86;100.00;99782.84;4959792;28;47490;-79
2022/05/23 09:23:28;;;;;;;;;12.67;12.00;;;;;20.87;100.00;99784.56;4947098;28;45559;-79
2022/05/23 09:25:55;;;;;;;;;14.00;13.67;;;;;20.86;100.00;99777.47;4973832;28;45479;-78
2022/05/23 09:28:35;;;;;;;;;14.33;14.00;;;;;20.90;100.00;99771.03;4975637;28;45327;-80
2022/05/23 09:31:10;;;;;;;;;15.33;15.33;;;;;20.95;100.00;99775.31;4969206;28;45876;-79
2022/05/23 09:33:45;;;;;;;;;37.33;26.00;;;;;20.98;100.00;99767.09;4986392;28;45639;-79
2022/05/23 09:36:20;;;;;;;;;22.67;13.33;;;;;20.97;100.00;99768.91;4972637;28;45536;-81
2022/05/23 09:38:56;;;;;;;;;20.33;18.00;;;;;21.04;100.00;99774.81;4976965;28;45529;-79
2022/05/23 09:49:57;;;;;;;;;17.00;15.67;;;;;21.48;100.00;99755.69;4976319;28;45453;-79
2022/05/23 09:52:29;;;;;;;;;17.00;17.00;;;;;21.56;100.00;99743.59;4974313;28;59351;-79
2022/05/23 09:55:05;;;;;;;;;20.67;17.33;;;;;21.62;100.00;99739.72;4972583;28;45385;-81
2022/05/23 09:57:49;;;;;;;;;18.67;17.67;;;;;21.70;100.00;99746.44;4949672;28;46950;-78
2022/05/23 10:00:17;;;;;;;;;19.33;19.33;;;;;21.85;100.00;99754.66;4969744;28;46125;-77
2022/05/23 10:02:59;;;;;;;;;18.00;16.67;;;;;21.93;100.00;99757.78;4971909;28;46840;-78
2022/05/23 10:05:37;;;;;;;;;17.67;17.67;;;;;21.94;100.00;99751.44;4973226;28;45398;-78
2022/05/23 10:08:06;;;;;;;;;19.00;19.00;;;;;21.95;100.00;99751.41;4972590;28;45542;-80
2022/05/23 10:10:40;;;;;;;;;19.00;17.33;;;;;21.96;100.00;99749.56;4960976;28;45776;-80
2022/05/23 10:13:25;;;;;;;;;19.67;19.67;;;;;21.99;100.00;99749.38;4971265;28;47457;-78
2022/05/23 10:15:55;;;;;;;;;20.00;18.00;;;;;21.99;100.00;99744.00;4973258;28;45480;-79
2022/05/23 10:18:27;;;;;;;;;18.67;18.67;;;;;21.95;100.00;99748.69;4977363;28;45585;-78
2022/05/23 10:20:53;;;;;;;;;16.33;16.33;;;;;21.95;100.00;99745.16;4974624;28;45624;-78
2022/05/23 10:23:22;;;;;;;;;21.33;17.00;;;;;21.89;100.00;99746.34;4957536;28;45706;-81
2022/05/23 10:26:07;;;;;;;;;19.67;17.00;;;;;21.80;100.00;99754.88;4969300;28;45616;-80
2022/05/23 10:28:46;;;;;;;;;19.67;17.33;;;;;21.65;100.00;99755.69;4974645;28;45485;-81
2022/05/23 10:31:19;;;;;;;;;18.00;17.33;;;;;21.54;100.00;99756.22;4968937;28;45881;-79
2022/05/23 10:33:47;;;;;;;;;17.67;17.00;;;;;21.57;100.00;99755.19;4956756;28;47600;-83
2022/05/23 10:36:23;;;;;;;;;19.33;19.33;;;;;21.64;100.00;99746.75;4954259;28;45571;-79
2022/05/23 10:44:34;;;;;;;;;21.67;21.00;;;;;21.69;100.00;99746.53;4961842;28;45729;-81
2022/05/23 10:47:17;;;;;;;;;17.67;16.67;;;;;21.64;100.00;99743.19;4960093;28;45415;-79
2022/05/23 10:49:56;;;;;;;;;18.67;18.00;;;;;21.53;100.00;99745.56;4976211;28;45582;-77
2022/05/23 10:52:24;;;;;;;;;20.33;20.33;;;;;21.44;100.00;99755.81;4977658;28;45281;-77
2022/05/23 10:55:13;;;;;;;;;19.67;19.67;;;;;21.33;100.00;99752.81;4973586;28;47658;-86
2022/05/23 10:58:03;;;;;;;;;24.33;21.00;;;;;21.29;100.00;99756.56;4958106;28;45624;-81
2022/05/23 11:00:38;;;;;;;;;22.00;21.33;;;;;21.24;100.00;99750.56;4983552;28;45517;-83
2022/05/23 11:03:25;;;;;;;;;28.33;22.33;;;;;21.23;100.00;99767.63;4958182;28;47380;-78
2022/05/23 11:06:19;;;;;;;;;24.33;22.67;;;;;21.16;100.00;99755.47;4975638;28;46041;-76
2022/05/23 11:09:20;;;;;;;;;22.00;22.00;;;;;21.10;100.00;99758.44;4975253;28;45580;-79
2022/05/23 11:12:23;;;;;;;;;17.67;17.67;;;;;20.96;100.00;99761.81;4975663;28;45605;-79
2022/05/23 11:15:19;;;;;;;;;23.33;20.67;;;;;20.87;100.00;99765.78;4977759;28;46169;-78
2022/05/23 11:17:48;;;;;;;;;22.00;20.33;;;;;20.81;100.00;99771.44;4977299;28;46514;-78
2022/05/23 11:20:23;;;;;;;;;21.67;21.67;;;;;20.75;100.00;99768.19;4979828;28;45246;-81
2022/05/23 11:23:08;;;;;;;;;25.67;21.33;;;;;20.67;100.00;99766.75;4979172;28;45534;-78
2022/05/23 11:25:44;;;;;;;;;28.33;21.33;;;;;20.61;100.00;99767.06;4977482;28;45582;-78
2022/05/23 11:33:58;;;;;;;;;22.00;20.00;;;;;20.35;100.00;99773.59;4977646;28;45826;-80
2022/05/23 11:36:44;;;;;;;;;25.33;22.00;;;;;20.22;100.00;99769.72;4955037;28;45443;-80
2022/05/23 11:39:41;;;;;;;;;25.00;19.33;;;;;19.96;100.00;99765.53;4976229;28;45984;-77
2022/05/23 11:42:12;;;;;;;;;28.50;27.00;;;;;19.80;100.00;99775.19;4976945;28;45548;-79
2022/05/23 11:44:44;;;;;;;;;26.00;23.33;;;;;19.78;100.00;99780.63;4975710;28;45956;-78
2022/05/23 11:47:25;;;;;;;;;27.75;26.50;;;;;19.68;100.00;99775.75;4976599;28;45595;-78
2022/05/23 11:49:59;;;;;;;;;29.00;25.50;;;;;19.62;100.00;99779.56;4977823;28;46526;-78
2022/05/23 11:52:44;;;;;;;;;27.75;25.75;;;;;19.57;100.00;99784.19;4976885;28;45529;-78
2022/05/23 11:55:11;;;;;;;;;36.75;31.50;;;;;19.54;100.00;99776.28;4979511;28;45520;-78
2022/05/23 11:57:41;;;;;;;;;31.25;29.25;;;;;19.51;100.00;99785.34;4978751;28;45622;-78
2022/05/23 12:00:36;;;;;;;;;15.25;13.25;;;;;19.42;100.00;99792.88;4978754;28;47520;-79
2022/05/23 12:03:05;;;;;;;;;32.00;27.25;;;;;19.32;100.00;99797.75;4970163;28;45589;-78
2022/05/23 12:05:32;;;;;;;;;27.50;25.00;;;;;19.26;100.00;99798.88;4974096;28;45327;-78
2022/05/23 12:08:01;;;;;;;;;29.25;28.25;;;;;19.25;100.00;99802.47;4976440;28;45474;-79
2022/05/23 12:10:28;;;;;;;;;27.25;23.25;;;;;19.21;100.00;99811.56;4981473;28;46946;-73
2022/05/23 12:13:24;;;;;;;;;27.50;23.75;;;;;19.10;100.00;99803.09;4977264;28;45380;-73
2022/05/23 12:15:52;;;;;;;;;26.50;25.00;;;;;19.04;100.00;99809.56;4975709;28;45505;-73
2022/05/23 12:18:24;;;;;;;;;24.00;23.00;;;;;18.98;100.00;99815.16;4972618;28;45386;-74
2022/05/23 12:20:58;;;;;;;;;27.00;26.00;;;;;18.94;100.00;99815.34;4976912;28;45390;-75
2022/05/23 12:23:44;;;;;;;;;23.50;20.50;;;;;18.89;100.00;99820.00;4976651;28;46169;-75
2022/05/23 12:26:09;;;;;;;;;26.25;25.00;;;;;18.86;100.00;99812.13;4960265;28;45552;-74
2022/05/23 12:28:57;;;;;;;;;30.00;28.50;;;;;18.87;100.00;99816.53;4976268;28;45447;-75
2022/05/23 12:31:27;;;;;;;;;28.00;26.25;;;;;18.88;100.00;99826.31;4957546;28;46705;-74
2022/05/23 12:34:02;;;;;;;;;28.75;25.75;;;;;18.77;100.00;99832.94;4985402;28;45463;-74